createdAt,value
2022-11-01T00:01:39.993Z,5.97
2022-11-01T00:04:08.685Z,5.85
2022-11-01T00:06:36.258Z,5.90
2022-11-01T00:09:03.959Z,6.15
2022-11-01T00:11:30.816Z,5.63
2022-11-01T00:13:57.703Z,6.20
2022-11-01T00:16:24.980Z,6.38
2022-11-01T00:18:51.822Z,5.57
2022-11-01T00:21:18.756Z,6.13
2022-11-01T00:23:46.248Z,5.72
2022-11-01T00:26:19.096Z,4.93
2022-11-01T00:28:46.641Z,5.25
2022-11-01T00:31:15.438Z,5.77
2022-11-01T00:33:42.570Z,5.65
2022-11-01T00:36:09.651Z,5.07
2022-11-01T00:38:36.778Z,6.15
2022-11-01T00:41:04.526Z,6.25
2022-11-01T00:43:32.829Z,5.03
2022-11-01T00:46:00.379Z,6.22
2022-11-01T00:48:27.348Z,5.88
2022-11-01T00:50:54.632Z,5.97
2022-11-01T00:53:21.696Z,6.18
2022-11-01T00:55:48.578Z,6.20
2022-11-01T00:58:16.076Z,5.00
2022-11-01T01:00:43.027Z,5.78
2022-11-01T01:03:10.338Z,5.28
2022-11-01T01:05:37.373Z,6.07
2022-11-01T01:08:04.478Z,6.07
2022-11-01T01:10:31.651Z,5.88
2022-11-01T01:12:59.096Z,4.90
2022-11-01T01:15:26.089Z,5.10
2022-11-01T01:17:53.089Z,5.38
2022-11-01T01:20:20.919Z,3.80
2022-11-01T01:22:48.249Z,4.10
2022-11-01T01:25:15.902Z,5.63
2022-11-01T01:27:42.877Z,4.22
2022-11-01T01:30:10.129Z,4.07
2022-11-01T01:32:36.965Z,4.00
2022-11-01T01:35:12.621Z,4.18
2022-11-01T01:37:39.458Z,5.18
2022-11-01T01:40:08.641Z,5.10
2022-11-01T01:42:37.474Z,4.40
2022-11-01T01:45:16.469Z,4.63
2022-11-01T01:47:45.818Z,4.90
2022-11-01T01:50:22.030Z,4.75
2022-11-01T01:52:53.447Z,4.97
2022-11-01T01:55:24.743Z,4.20
2022-11-01T01:57:53.071Z,4.17
2022-11-01T02:00:20.333Z,4.40
2022-11-01T02:02:47.291Z,4.57
2022-11-01T02:05:26.592Z,4.45
2022-11-01T02:07:54.319Z,4.93
2022-11-01T02:10:22.582Z,4.47
2022-11-01T02:12:50.118Z,4.90
2022-11-01T02:15:20.971Z,3.60
2022-11-01T02:18:16.710Z,4.70
2022-11-01T02:20:53.109Z,4.20
2022-11-01T02:23:36.305Z,3.97
2022-11-01T02:26:28.478Z,4.53
2022-11-01T02:29:38.477Z,4.40
2022-11-01T02:32:22.383Z,4.60
2022-11-01T02:34:58.086Z,4.18
2022-11-01T02:37:29.952Z,4.60
2022-11-01T02:40:02.643Z,4.20
2022-11-01T02:42:35.279Z,4.30
2022-11-01T02:45:08.510Z,4.50
2022-11-01T02:47:36.656Z,3.65
2022-11-01T02:50:08.913Z,5.03
2022-11-01T02:52:39.074Z,4.00
2022-11-01T02:55:29.871Z,4.40
2022-11-01T02:58:01.993Z,4.10
2022-11-01T03:00:32.295Z,3.78
2022-11-01T03:03:20.979Z,4.40
2022-11-01T03:06:08.710Z,4.10
2022-11-01T03:08:48.449Z,4.10
2022-11-01T03:11:21.086Z,3.53
2022-11-01T03:14:17.557Z,3.25
2022-11-01T03:16:53.332Z,3.00
2022-11-01T03:19:35.458Z,2.72
2022-11-01T03:22:11.302Z,2.67
2022-11-01T03:24:45.222Z,2.60
2022-11-01T03:27:34.664Z,2.25
2022-11-01T03:30:14.045Z,2.40
2022-11-01T03:32:47.702Z,2.22
2022-11-01T03:35:23.315Z,2.42
2022-11-01T03:37:54.007Z,2.60
2022-11-01T03:40:24.332Z,2.17
2022-11-01T03:42:54.608Z,2.17
2022-11-01T03:45:25.404Z,2.63
2022-11-01T03:47:52.392Z,2.10
2022-11-01T03:50:27.483Z,1.70
2022-11-01T03:52:55.066Z,1.40
2022-11-01T03:55:22.310Z,1.20
2022-11-01T03:57:51.612Z,1.38
2022-11-01T04:00:21.648Z,1.60
2022-11-01T04:02:49.960Z,1.35
2022-11-01T04:05:17.947Z,1.40
2022-11-01T04:07:45.134Z,1.50
2022-11-01T04:10:13.135Z,1.40
2022-11-01T04:12:40.535Z,1.42
2022-11-01T04:15:26.121Z,1.52
2022-11-01T04:18:44.206Z,1.52
2022-11-01T04:21:12.865Z,1.30
2022-11-01T04:23:40.071Z,1.40
2022-11-01T04:26:07.641Z,1.30
2022-11-01T04:28:34.478Z,1.30
2022-11-01T04:31:02.365Z,1.50
2022-11-01T04:33:29.091Z,1.40
2022-11-01T04:35:55.818Z,1.40
2022-11-01T04:38:22.723Z,1.20
2022-11-01T04:40:49.538Z,1.20
2022-11-01T04:43:16.483Z,1.20
2022-11-01T04:45:43.313Z,1.17
2022-11-01T04:48:15.930Z,1.20
2022-11-01T04:50:43.450Z,1.20
2022-11-01T04:53:11.018Z,1.15
2022-11-01T04:55:37.916Z,1.08
2022-11-01T04:58:06.709Z,1.10
2022-11-01T05:00:34.334Z,1.30
2022-11-01T05:03:06.533Z,1.27
2022-11-01T05:05:34.810Z,1.20
2022-11-01T05:08:07.499Z,1.10
2022-11-01T05:10:35.824Z,1.23
2022-11-01T05:13:02.991Z,1.20
2022-11-01T05:15:30.124Z,1.10
2022-11-01T05:17:57.562Z,1.20
2022-11-01T05:20:24.568Z,1.38
2022-11-01T05:22:51.327Z,1.50
2022-11-01T05:25:18.181Z,1.50
2022-11-01T05:27:44.903Z,1.67
2022-11-01T05:30:12.465Z,1.52
2022-11-01T05:32:39.350Z,1.80
2022-11-01T05:35:06.636Z,1.27
2022-11-01T05:37:35.730Z,1.38
2022-11-01T05:40:03.447Z,1.30
2022-11-01T05:42:30.261Z,1.33
2022-11-01T05:44:57.184Z,1.38
2022-11-01T05:47:23.990Z,1.20
2022-11-01T05:49:50.807Z,1.20
2022-11-01T05:52:17.571Z,1.40
2022-11-01T05:54:44.410Z,1.45
2022-11-01T05:57:11.234Z,1.30
2022-11-01T05:59:38.237Z,1.23
2022-11-01T06:02:05.051Z,1.50
2022-11-01T06:04:31.922Z,1.90
2022-11-01T06:06:58.720Z,1.25
2022-11-01T06:09:25.478Z,1.50
2022-11-01T06:11:52.266Z,1.37
2022-11-01T06:14:19.098Z,1.73
2022-11-01T06:16:45.932Z,1.55
2022-11-01T06:19:13.065Z,1.60
2022-11-01T06:21:39.778Z,1.45
2022-11-01T06:24:06.709Z,1.67
2022-11-01T06:26:33.486Z,1.48
2022-11-01T06:29:01.954Z,1.70
2022-11-01T06:31:29.191Z,1.70
2022-11-01T06:33:56.256Z,1.50
2022-11-01T06:36:23.785Z,1.50
2022-11-01T06:38:50.832Z,1.45
2022-11-01T06:41:17.822Z,1.40
2022-11-01T06:43:44.643Z,1.70
2022-11-01T06:46:11.570Z,1.38
2022-11-01T06:48:38.331Z,1.50
2022-11-01T06:51:05.680Z,1.40
2022-11-01T06:53:32.600Z,1.83
2022-11-01T06:56:01.110Z,1.60
2022-11-01T06:58:28.411Z,1.60
2022-11-01T07:00:57.147Z,1.80
2022-11-01T07:03:23.995Z,1.92
2022-11-01T07:05:51.894Z,1.70
2022-11-01T07:08:18.642Z,1.77
2022-11-01T07:10:45.429Z,1.65
2022-11-01T07:13:13.917Z,1.67
2022-11-01T07:15:41.163Z,1.75
2022-11-01T07:18:08.722Z,1.50
2022-11-01T07:20:41.628Z,1.58
2022-11-01T07:23:14.655Z,1.80
2022-11-01T07:25:41.873Z,1.73
2022-11-01T07:28:09.030Z,2.08
2022-11-01T07:30:36.133Z,1.70
2022-11-01T07:33:04.885Z,1.70
2022-11-01T07:35:32.751Z,1.77
2022-11-01T07:38:02.884Z,1.90
2022-11-01T07:40:32.430Z,1.88
2022-11-01T07:43:00.692Z,2.00
2022-11-01T07:45:29.547Z,2.15
2022-11-01T07:48:10.093Z,1.90
2022-11-01T07:50:38.050Z,1.53
2022-11-01T07:53:08.214Z,1.40
2022-11-01T07:55:36.322Z,1.85
2022-11-01T07:58:04.614Z,1.63
2022-11-01T08:00:32.275Z,1.60
2022-11-01T08:03:13.908Z,1.80
2022-11-01T08:05:41.838Z,1.85
2022-11-01T08:08:09.499Z,1.55
2022-11-01T08:10:37.409Z,1.50
2022-11-01T08:13:13.815Z,1.60
2022-11-01T08:15:40.871Z,1.67
2022-11-01T08:18:07.757Z,1.80
2022-11-01T08:20:34.960Z,1.50
2022-11-01T08:23:02.090Z,1.35
2022-11-01T08:25:29.532Z,1.75
2022-11-01T08:28:05.137Z,1.60
2022-11-01T08:30:32.373Z,1.90
2022-11-01T08:33:03.259Z,2.35
2022-11-01T08:35:31.522Z,1.83
2022-11-01T08:38:03.130Z,1.52
2022-11-01T08:40:31.605Z,1.60
2022-11-01T08:42:58.683Z,1.95
2022-11-01T08:45:26.705Z,1.70
2022-11-01T08:48:01.411Z,1.92
2022-11-01T08:50:28.938Z,1.98
2022-11-01T08:52:55.814Z,1.50
2022-11-01T08:55:23.024Z,1.90
2022-11-01T08:57:50.031Z,1.80
2022-11-01T09:00:17.459Z,1.98
2022-11-01T09:02:44.420Z,1.58
2022-11-01T09:05:11.237Z,2.03
2022-11-01T09:07:38.239Z,1.70
2022-11-01T09:10:06.415Z,1.50
2022-11-01T09:12:33.320Z,1.85
2022-11-01T09:15:00.521Z,1.70
2022-11-01T09:17:27.431Z,1.87
2022-11-01T09:19:55.053Z,1.60
2022-11-01T09:22:22.137Z,1.70
2022-11-01T09:24:48.938Z,1.52
2022-11-01T09:27:16.289Z,1.60
2022-11-01T09:29:45.354Z,1.93
2022-11-01T09:32:15.126Z,1.77
2022-11-01T09:34:41.942Z,1.80
2022-11-01T09:37:08.674Z,1.80
2022-11-01T09:39:35.416Z,1.58
2022-11-01T09:42:04.599Z,1.70
2022-11-01T09:44:35.588Z,2.25
2022-11-01T09:47:08.243Z,1.85
2022-11-01T09:49:40.830Z,1.85
2022-11-01T09:52:10.411Z,2.13
2022-11-01T09:54:37.470Z,1.90
2022-11-01T09:57:19.342Z,1.73
2022-11-01T10:00:04.922Z,1.73
2022-11-01T10:02:34.803Z,1.80
2022-11-01T10:05:20.561Z,2.03
2022-11-01T10:07:57.077Z,1.87
2022-11-01T10:10:35.669Z,2.10
2022-11-01T10:13:30.496Z,1.75
2022-11-01T10:16:13.204Z,2.15
2022-11-01T10:18:52.680Z,2.05
2022-11-01T10:21:23.451Z,2.00
2022-11-01T10:23:53.899Z,2.00
2022-11-01T10:26:28.429Z,1.98
2022-11-01T10:29:00.534Z,1.88
2022-11-01T10:31:28.666Z,2.00
2022-11-01T10:34:08.989Z,2.03
2022-11-01T10:36:40.105Z,2.28
2022-11-01T10:42:17.350Z,2.20
2022-11-01T10:44:48.461Z,2.22
2022-11-01T10:47:19.439Z,2.10
2022-11-01T10:50:07.007Z,1.70
2022-11-01T10:52:55.517Z,2.50
2022-11-01T10:55:49.346Z,2.20
2022-11-01T10:58:34.530Z,2.08
2022-11-01T11:01:03.620Z,2.13
2022-11-01T11:03:31.325Z,2.00
2022-11-01T11:06:05.195Z,2.35
2022-11-01T11:08:33.127Z,1.92
2022-11-01T11:11:05.469Z,2.20
2022-11-01T11:13:34.840Z,2.10
2022-11-01T11:16:05.494Z,2.00
2022-11-01T11:18:42.480Z,2.22
2022-11-01T11:21:12.185Z,1.90
2022-11-01T11:23:46.040Z,1.75
2022-11-01T11:26:16.949Z,2.10
2022-11-01T11:28:51.636Z,1.55
2022-11-01T11:31:24.277Z,1.85
2022-11-01T11:33:56.353Z,1.70
2022-11-01T11:36:38.462Z,1.60
2022-11-01T11:39:05.984Z,1.93
2022-11-01T11:41:36.490Z,1.85
2022-11-01T11:44:03.969Z,2.15
2022-11-01T11:46:31.081Z,1.63
2022-11-01T11:49:06.988Z,2.08
2022-11-01T11:51:37.931Z,2.13
2022-11-01T11:54:21.863Z,1.90
2022-11-01T11:57:06.285Z,1.77
2022-11-01T11:59:33.762Z,2.13
2022-11-01T12:02:07.416Z,2.15
2022-11-01T12:04:45.193Z,1.63
2022-11-01T12:07:44.606Z,1.85
2022-11-01T12:10:29.990Z,1.90
2022-11-01T12:12:57.103Z,1.90
2022-11-01T12:15:41.150Z,1.90
2022-11-01T12:18:16.415Z,1.30
2022-11-01T12:20:48.573Z,1.80
2022-11-01T12:23:32.877Z,1.75
2022-11-01T12:26:04.380Z,1.85
2022-11-01T12:28:36.394Z,1.85
2022-11-01T12:31:21.301Z,2.10
2022-11-01T12:34:11.364Z,1.70
2022-11-01T12:36:58.980Z,1.58
2022-11-01T12:39:38.043Z,2.17
2022-11-01T12:42:05.322Z,1.50
2022-11-01T12:44:47.353Z,1.40
2022-11-01T12:47:27.376Z,1.70
2022-11-01T12:50:10.103Z,1.90
2022-11-01T12:52:45.709Z,1.50
2022-11-01T12:55:14.228Z,1.58
2022-11-01T12:57:43.619Z,1.90
2022-11-01T13:00:15.605Z,1.35
2022-11-01T13:03:12.497Z,1.48
2022-11-01T13:05:51.661Z,1.70
2022-11-01T13:08:59.998Z,2.00
2022-11-01T13:11:35.433Z,1.60
2022-11-01T13:14:37.313Z,1.60
2022-11-01T13:17:21.071Z,1.60
2022-11-01T13:20:24.249Z,1.55
2022-11-01T13:23:04.268Z,1.60
2022-11-01T13:25:51.719Z,1.60
2022-11-01T13:28:26.100Z,1.70
2022-11-01T13:31:01.210Z,1.88
2022-11-01T13:33:39.882Z,1.98
2022-11-01T13:36:15.148Z,1.60
2022-11-01T13:38:51.887Z,1.50
2022-11-01T13:41:34.428Z,1.55
2022-11-01T13:44:12.255Z,1.80
2022-11-01T13:47:01.001Z,1.70
2022-11-01T13:49:47.285Z,1.63
2022-11-01T13:52:28.970Z,1.53
2022-11-01T13:55:21.437Z,1.63
2022-11-01T13:57:48.881Z,1.70
2022-11-01T14:00:40.036Z,1.80
2022-11-01T14:03:25.350Z,1.70
2022-11-01T14:06:07.747Z,1.50
2022-11-01T14:08:46.982Z,2.05
2022-11-01T14:11:42.549Z,1.63
2022-11-01T14:14:31.257Z,1.60
2022-11-01T14:17:19.290Z,1.52
2022-11-01T14:19:48.042Z,1.60
2022-11-01T14:22:27.233Z,1.60
2022-11-01T14:25:03.111Z,1.50
2022-11-01T14:27:40.000Z,1.50
2022-11-01T14:30:26.104Z,1.50
2022-11-01T14:33:01.614Z,1.70
2022-11-01T14:35:37.405Z,1.50
2022-11-01T14:38:07.749Z,1.75
2022-11-01T14:40:41.648Z,1.75
2022-11-01T14:43:34.318Z,1.60
2022-11-01T14:46:24.222Z,1.67
2022-11-01T14:49:14.671Z,1.50
2022-11-01T14:52:11.672Z,1.60
2022-11-01T14:54:43.955Z,1.90
2022-11-01T14:57:40.298Z,1.70
2022-11-01T15:00:20.796Z,1.80
2022-11-01T15:02:47.724Z,1.85
2022-11-01T15:05:16.728Z,2.10
2022-11-01T15:07:48.681Z,2.08
2022-11-01T15:10:15.683Z,1.83
2022-11-01T15:12:57.815Z,1.67
2022-11-01T15:15:37.332Z,1.75
2022-11-01T15:18:07.481Z,1.45
2022-11-01T15:20:41.224Z,1.60
2022-11-01T15:23:18.249Z,1.90
2022-11-01T15:25:52.623Z,1.57
2022-11-01T15:28:32.199Z,1.13
2022-11-01T15:31:02.977Z,1.40
2022-11-01T15:33:31.648Z,1.40
2022-11-01T15:36:01.864Z,1.92
2022-11-01T15:38:30.715Z,1.70
2022-11-01T15:40:57.607Z,1.50
2022-11-01T15:43:27.289Z,1.88
2022-11-01T15:45:59.993Z,1.40
2022-11-01T15:48:33.244Z,1.50
2022-11-01T15:51:04.224Z,1.60
2022-11-01T15:53:35.234Z,1.60
2022-11-01T15:56:12.704Z,1.60
2022-11-01T15:58:48.013Z,1.38
2022-11-01T16:01:20.236Z,1.75
2022-11-01T16:04:09.469Z,1.57
2022-11-01T16:06:39.905Z,1.40
2022-11-01T16:09:41.476Z,1.60
2022-11-01T16:12:21.790Z,1.50
2022-11-01T16:14:59.447Z,1.30
2022-11-01T16:17:33.812Z,1.97
2022-11-01T16:20:04.881Z,1.92
2022-11-01T16:22:46.870Z,1.30
2022-11-01T16:25:16.342Z,1.63
2022-11-01T16:28:03.239Z,1.48
2022-11-01T16:30:33.435Z,1.50
2022-11-01T16:33:28.705Z,1.33
2022-11-01T16:36:00.765Z,1.35
2022-11-01T16:38:40.908Z,1.90
2022-11-01T16:41:36.467Z,1.67
2022-11-01T16:44:15.907Z,1.83
2022-11-01T16:46:42.985Z,1.70
2022-11-01T16:49:28.990Z,1.83
2022-11-01T16:51:58.599Z,1.80
2022-11-01T16:54:26.399Z,1.73
2022-11-01T16:56:55.933Z,1.67
2022-11-01T16:59:33.949Z,1.70
2022-11-01T17:02:02.841Z,1.52
2022-11-01T17:04:29.945Z,1.90
2022-11-01T17:06:59.828Z,2.33
2022-11-01T17:09:28.804Z,1.90
2022-11-01T17:11:55.861Z,1.80
2022-11-01T17:14:22.699Z,1.80
2022-11-01T17:16:52.123Z,2.00
2022-11-01T17:19:21.930Z,1.70
2022-11-01T17:21:50.631Z,2.20
2022-11-01T17:24:20.546Z,1.98
2022-11-01T17:26:48.606Z,1.90
2022-11-01T17:29:15.459Z,2.10
2022-11-01T17:31:42.374Z,2.13
2022-11-01T17:34:09.346Z,1.90
2022-11-01T17:36:37.869Z,1.80
2022-11-01T17:39:04.845Z,1.98
2022-11-01T17:41:31.627Z,1.90
2022-11-01T17:43:58.458Z,1.88
2022-11-01T17:46:26.125Z,2.00
2022-11-01T17:48:52.864Z,1.67
2022-11-01T17:51:22.979Z,1.50
2022-11-01T17:53:56.831Z,1.88
2022-11-01T17:56:24.137Z,1.80
2022-11-01T17:58:53.396Z,2.20
2022-11-01T18:01:21.381Z,1.75
2022-11-01T18:03:49.054Z,1.67
2022-11-01T18:06:16.919Z,1.90
2022-11-01T18:08:51.453Z,2.10
2022-11-01T18:11:39.460Z,1.93
2022-11-01T18:14:18.806Z,2.30
2022-11-01T18:16:52.940Z,2.00
2022-11-01T18:19:40.479Z,2.00
2022-11-01T18:22:25.729Z,2.60
2022-11-01T18:24:59.002Z,2.20
2022-11-01T18:27:43.909Z,2.28
2022-11-01T18:30:17.685Z,1.75
2022-11-01T18:32:44.984Z,1.65
2022-11-01T18:35:27.449Z,1.90
2022-11-01T18:38:28.149Z,1.77
2022-11-01T18:41:00.305Z,1.60
2022-11-01T18:43:32.780Z,1.60
2022-11-01T18:46:24.014Z,2.15
2022-11-01T18:48:59.763Z,1.90
2022-11-01T18:51:29.496Z,1.83
2022-11-01T18:54:27.317Z,1.75
2022-11-01T18:56:57.647Z,1.90
2022-11-01T18:59:24.417Z,1.52
2022-11-01T19:02:10.933Z,1.90
2022-11-01T19:04:41.041Z,1.80
2022-11-01T19:07:22.940Z,1.70
2022-11-01T19:09:58.478Z,1.85
2022-11-01T19:15:24.766Z,1.73
2022-11-01T19:17:58.293Z,2.08
2022-11-01T19:20:28.436Z,2.00
2022-11-01T19:22:58.704Z,1.77
2022-11-01T19:25:31.910Z,1.98
2022-11-01T19:28:30.601Z,1.85
2022-11-01T19:31:03.315Z,1.80
2022-11-01T19:33:37.578Z,1.70
2022-11-01T19:36:14.345Z,1.88
2022-11-01T19:38:44.953Z,1.67
2022-11-01T19:41:15.843Z,2.00
2022-11-01T19:43:42.642Z,2.05
2022-11-01T19:46:16.307Z,2.00
2022-11-01T19:48:43.120Z,3.00
2022-11-01T19:51:18.478Z,2.40
2022-11-01T19:53:45.683Z,2.00
2022-11-01T19:56:12.543Z,1.88
2022-11-01T19:58:58.706Z,2.10
2022-11-01T20:01:40.751Z,2.28
2022-11-01T20:04:13.005Z,1.90
2022-11-01T20:06:48.619Z,2.30
2022-11-01T20:09:24.326Z,1.90
2022-11-01T20:11:51.541Z,2.10
2022-11-01T20:14:18.696Z,2.20
2022-11-01T20:16:46.749Z,1.85
2022-11-01T20:19:17.380Z,2.05
2022-11-01T20:21:45.269Z,2.55
2022-11-01T20:24:12.602Z,2.50
2022-11-01T20:26:39.856Z,2.25
2022-11-01T20:29:06.768Z,2.00
2022-11-01T20:31:33.511Z,1.80
2022-11-01T20:34:00.343Z,2.40
2022-11-01T20:36:28.099Z,2.20
2022-11-01T20:38:54.935Z,2.15
2022-11-01T20:41:22.448Z,2.40
2022-11-01T20:43:49.585Z,1.98
2022-11-01T20:46:16.596Z,1.70
2022-11-01T20:48:45.086Z,2.13
2022-11-01T20:51:13.202Z,2.08
2022-11-01T20:53:40.361Z,1.67
2022-11-01T20:56:07.907Z,2.05
2022-11-01T20:58:41.037Z,1.50
2022-11-01T21:01:16.232Z,1.97
2022-11-01T21:03:43.372Z,1.50
2022-11-01T21:06:15.491Z,1.85
2022-11-01T21:08:43.148Z,1.60
2022-11-01T21:11:43.783Z,1.88
2022-11-01T21:14:15.487Z,1.60
2022-11-01T21:16:42.993Z,1.40
2022-11-01T21:19:23.592Z,1.80
2022-11-01T21:22:01.264Z,1.60
2022-11-01T21:24:40.821Z,1.30
2022-11-01T21:27:13.355Z,1.63
2022-11-01T21:29:46.172Z,1.50
2022-11-01T21:32:34.705Z,1.20
2022-11-01T21:35:19.946Z,1.73
2022-11-01T21:37:54.798Z,1.40
2022-11-01T21:40:30.946Z,1.20
2022-11-01T21:42:58.076Z,1.73
2022-11-01T21:45:30.676Z,1.48
2022-11-01T21:48:16.529Z,1.40
2022-11-01T21:50:43.434Z,1.67
2022-11-01T21:53:10.311Z,1.77
2022-11-01T21:55:37.108Z,1.65
2022-11-01T21:58:03.895Z,1.50
2022-11-01T22:00:30.745Z,1.60
2022-11-01T22:02:57.786Z,1.40
2022-11-01T22:05:24.626Z,1.30
2022-11-01T22:07:51.579Z,1.30
2022-11-01T22:10:18.494Z,1.30
2022-11-01T22:12:45.269Z,1.60
2022-11-01T22:15:12.126Z,1.48
2022-11-01T22:17:38.992Z,1.50
2022-11-01T22:20:06.228Z,1.50
2022-11-01T22:22:33.384Z,1.55
2022-11-01T22:25:00.255Z,1.30
2022-11-01T22:27:27.021Z,1.60
2022-11-01T22:29:53.841Z,1.43
2022-11-01T22:32:20.654Z,1.10
2022-11-01T22:34:47.435Z,1.05
2022-11-01T22:37:14.713Z,1.40
2022-11-01T22:39:41.957Z,1.13
2022-11-01T22:42:17.333Z,1.20
2022-11-01T22:44:46.935Z,1.20
2022-11-01T22:47:28.248Z,1.17
2022-11-01T22:49:57.428Z,1.02
2022-11-01T22:52:43.246Z,1.27
2022-11-01T22:55:10.092Z,1.27
2022-11-01T22:57:49.125Z,1.25
2022-11-01T23:00:27.321Z,1.13
2022-11-01T23:03:00.070Z,1.30
2022-11-01T23:05:27.557Z,1.00
2022-11-01T23:07:56.412Z,1.40
2022-11-01T23:10:26.595Z,1.60
2022-11-01T23:13:25.933Z,1.38
2022-11-01T23:15:54.684Z,1.50
2022-11-01T23:18:23.889Z,1.80
2022-11-01T23:21:00.170Z,1.70
2022-11-01T23:23:27.220Z,1.25
2022-11-01T23:25:56.159Z,2.38
2022-11-01T23:28:24.586Z,1.30
2022-11-01T23:30:51.796Z,1.80
2022-11-01T23:33:21.044Z,1.80
2022-11-01T23:35:56.414Z,1.95
2022-11-01T23:38:35.549Z,2.10
2022-11-01T23:41:02.819Z,2.10
2022-11-01T23:43:40.939Z,1.50
2022-11-01T23:46:10.026Z,1.70
2022-11-01T23:48:41.669Z,1.52
2022-11-01T23:51:16.570Z,1.80
2022-11-01T23:53:50.136Z,1.83
2022-11-01T23:56:25.127Z,1.80
2022-11-01T23:59:00.519Z,1.70
